sensor_id;sensor_type;location;lat;lon;timestamp;pressure;altitude;pressure_sealevel;temperature;humidity
13235;BME280;6683;48.506;9.050;2023-02-10T00:02:44;100040.88;;;-0.47;67.84
13235;BME280;6683;48.506;9.050;2023-02-10T00:05:48;100037.59;;;-0.51;67.93
13235;BME280;6683;48.506;9.050;2023-02-10T00:08:53;100031.72;;;-0.54;67.55
13235;BME280;6683;48.506;9.050;2023-02-10T00:11:56;100039.44;;;-0.53;67.74
13235;BME280;6683;48.506;9.050;2023-02-10T00:15:00;100040.53;;;-0.58;67.33
13235;BME280;6683;48.506;9.050;2023-02-10T00:18:03;100032.22;;;-0.65;67.06
13235;BME280;6683;48.506;9.050;2023-02-10T00:21:09;100029.00;;;-0.70;67.59
13235;BME280;6683;48.506;9.050;2023-02-10T00:24:14;100038.69;;;-0.73;67.57
13235;BME280;6683;48.506;9.050;2023-02-10T00:27:16;100040.63;;;-0.78;67.45
13235;BME280;6683;48.506;9.050;2023-02-10T00:30:24;100021.78;;;-0.82;67.36
13235;BME280;6683;48.506;9.050;2023-02-10T00:33:26;100024.47;;;-0.84;67.69
13235;BME280;6683;48.506;9.050;2023-02-10T00:36:30;100028.81;;;-0.84;67.94
13235;BME280;6683;48.506;9.050;2023-02-10T00:39:32;100023.69;;;-0.86;68.00
13235;BME280;6683;48.506;9.050;2023-02-10T00:42:35;100026.34;;;-0.87;68.00
13235;BME280;6683;48.506;9.050;2023-02-10T00:45:37;100022.22;;;-0.91;67.62
13235;BME280;6683;48.506;9.050;2023-02-10T00:48:40;100031.81;;;-0.93;67.64
13235;BME280;6683;48.506;9.050;2023-02-10T00:51:44;100042.34;;;-0.96;67.71
13235;BME280;6683;48.506;9.050;2023-02-10T00:54:47;100029.50;;;-0.99;68.01
13235;BME280;6683;48.506;9.050;2023-02-10T00:57:50;100027.97;;;-1.03;68.17
13235;BME280;6683;48.506;9.050;2023-02-10T01:00:53;100032.44;;;-1.07;67.83
13235;BME280;6683;48.506;9.050;2023-02-10T01:03:56;100039.44;;;-1.09;67.79
13235;BME280;6683;48.506;9.050;2023-02-10T01:07:00;100045.59;;;-1.11;68.16
13235;BME280;6683;48.506;9.050;2023-02-10T01:10:04;100045.69;;;-1.13;67.31
13235;BME280;6683;48.506;9.050;2023-02-10T01:13:08;100055.31;;;-1.16;67.61
13235;BME280;6683;48.506;9.050;2023-02-10T01:16:14;100058.84;;;-1.17;67.39
13235;BME280;6683;48.506;9.050;2023-02-10T01:19:17;100059.81;;;-1.20;67.65
13235;BME280;6683;48.506;9.050;2023-02-10T01:22:21;100065.06;;;-1.21;67.91
13235;BME280;6683;48.506;9.050;2023-02-10T01:25:24;100056.44;;;-1.22;67.42
13235;BME280;6683;48.506;9.050;2023-02-10T01:28:26;100058.25;;;-1.24;67.85
13235;BME280;6683;48.506;9.050;2023-02-10T01:31:29;100057.47;;;-1.26;68.06
13235;BME280;6683;48.506;9.050;2023-02-10T01:34:31;100058.53;;;-1.30;67.72
13235;BME280;6683;48.506;9.050;2023-02-10T01:37:35;100062.09;;;-1.32;67.93
13235;BME280;6683;48.506;9.050;2023-02-10T01:40:38;100050.97;;;-1.34;67.90
13235;BME280;6683;48.506;9.050;2023-02-10T01:43:56;100052.84;;;-1.38;67.86
13235;BME280;6683;48.506;9.050;2023-02-10T01:46:59;100068.44;;;-1.39;68.02
13235;BME280;6683;48.506;9.050;2023-02-10T01:50:02;100068.63;;;-1.44;67.64
13235;BME280;6683;48.506;9.050;2023-02-10T01:53:06;100067.03;;;-1.46;67.34
13235;BME280;6683;48.506;9.050;2023-02-10T01:56:10;100064.47;;;-1.48;67.65
13235;BME280;6683;48.506;9.050;2023-02-10T01:59:14;100067.22;;;-1.51;67.95
13235;BME280;6683;48.506;9.050;2023-02-10T02:02:18;100058.78;;;-1.56;67.21
13235;BME280;6683;48.506;9.050;2023-02-10T02:05:31;100053.88;;;-1.62;67.31
13235;BME280;6683;48.506;9.050;2023-02-10T02:08:36;100048.06;;;-1.67;67.63
13235;BME280;6683;48.506;9.050;2023-02-10T02:11:47;100049.16;;;-1.73;67.17
13235;BME280;6683;48.506;9.050;2023-02-10T02:14:56;100051.94;;;-1.77;67.30
13235;BME280;6683;48.506;9.050;2023-02-10T02:18:07;100054.78;;;-1.83;67.43
13235;BME280;6683;48.506;9.050;2023-02-10T02:22:04;100056.06;;;-1.93;67.40
13235;BME280;6683;48.506;9.050;2023-02-10T02:25:29;100051.22;;;-2.01;67.47
13235;BME280;6683;48.506;9.050;2023-02-10T02:28:45;100053.22;;;-2.07;67.65
13235;BME280;6683;48.506;9.050;2023-02-10T02:32:00;100065.47;;;-2.12;67.25
13235;BME280;6683;48.506;9.050;2023-02-10T02:35:07;100061.34;;;-2.16;67.31
13235;BME280;6683;48.506;9.050;2023-02-10T02:38:11;100070.00;;;-2.17;67.42
13235;BME280;6683;48.506;9.050;2023-02-10T02:41:22;100076.22;;;-2.21;67.48
13235;BME280;6683;48.506;9.050;2023-02-10T02:44:25;100078.91;;;-2.24;67.87
13235;BME280;6683;48.506;9.050;2023-02-10T02:47:59;100077.28;;;-2.27;67.80
13235;BME280;6683;48.506;9.050;2023-02-10T02:51:13;100090.38;;;-2.31;67.09
13235;BME280;6683;48.506;9.050;2023-02-10T02:54:25;100087.94;;;-2.34;67.55
13235;BME280;6683;48.506;9.050;2023-02-10T02:57:39;100087.16;;;-2.36;67.78
13235;BME280;6683;48.506;9.050;2023-02-10T03:00:46;100082.75;;;-2.34;67.91
13235;BME280;6683;48.506;9.050;2023-02-10T03:03:53;100078.47;;;-2.35;67.87
13235;BME280;6683;48.506;9.050;2023-02-10T03:06:57;100081.81;;;-2.32;67.74
13235;BME280;6683;48.506;9.050;2023-02-10T03:09:59;100089.56;;;-2.32;67.96
13235;BME280;6683;48.506;9.050;2023-02-10T03:13:01;100091.38;;;-2.34;67.34
13235;BME280;6683;48.506;9.050;2023-02-10T03:16:05;100097.44;;;-2.35;67.67
13235;BME280;6683;48.506;9.050;2023-02-10T03:19:09;100109.50;;;-2.35;67.88
13235;BME280;6683;48.506;9.050;2023-02-10T03:22:12;100106.22;;;-2.39;67.41
13235;BME280;6683;48.506;9.050;2023-02-10T03:25:14;100108.09;;;-2.42;67.72
13235;BME280;6683;48.506;9.050;2023-02-10T03:28:16;100108.97;;;-2.44;67.83
13235;BME280;6683;48.506;9.050;2023-02-10T03:31:19;100103.00;;;-2.46;67.39
13235;BME280;6683;48.506;9.050;2023-02-10T03:34:23;100101.34;;;-2.47;67.47
13235;BME280;6683;48.506;9.050;2023-02-10T03:37:25;100112.56;;;-2.48;67.56
13235;BME280;6683;48.506;9.050;2023-02-10T03:40:28;100117.81;;;-2.49;67.50
13235;BME280;6683;48.506;9.050;2023-02-10T03:43:30;100112.75;;;-2.52;67.44
13235;BME280;6683;48.506;9.050;2023-02-10T03:46:33;100117.91;;;-2.52;67.52
13235;BME280;6683;48.506;9.050;2023-02-10T03:49:38;100120.56;;;-2.54;67.33
13235;BME280;6683;48.506;9.050;2023-02-10T03:52:41;100122.38;;;-2.56;67.78
13235;BME280;6683;48.506;9.050;2023-02-10T03:55:44;100125.91;;;-2.58;67.43
13235;BME280;6683;48.506;9.050;2023-02-10T03:58:46;100123.38;;;-2.60;67.66
13235;BME280;6683;48.506;9.050;2023-02-10T04:01:48;100119.94;;;-2.60;67.87
13235;BME280;6683;48.506;9.050;2023-02-10T04:04:52;100129.44;;;-2.61;67.74
13235;BME280;6683;48.506;9.050;2023-02-10T04:07:55;100131.22;;;-2.61;67.92
13235;BME280;6683;48.506;9.050;2023-02-10T04:10:57;100130.34;;;-2.62;67.77
13235;BME280;6683;48.506;9.050;2023-02-10T04:13:59;100138.09;;;-2.62;67.79
13235;BME280;6683;48.506;9.050;2023-02-10T04:17:02;100139.78;;;-2.61;67.92
13235;BME280;6683;48.506;9.050;2023-02-10T04:20:07;100149.22;;;-2.60;67.83
13235;BME280;6683;48.506;9.050;2023-02-10T04:23:10;100137.97;;;-2.59;67.88
13235;BME280;6683;48.506;9.050;2023-02-10T04:26:12;100140.56;;;-2.59;68.08
13235;BME280;6683;48.506;9.050;2023-02-10T04:29:15;100143.16;;;-2.59;67.76
13235;BME280;6683;48.506;9.050;2023-02-10T04:32:18;100126.91;;;-2.62;67.31
13235;BME280;6683;48.506;9.050;2023-02-10T04:35:22;100132.09;;;-2.62;67.53
13235;BME280;6683;48.506;9.050;2023-02-10T04:38:25;100135.59;;;-2.63;67.37
13235;BME280;6683;48.506;9.050;2023-02-10T04:41:27;100133.94;;;-2.66;67.30
13235;BME280;6683;48.506;9.050;2023-02-10T04:44:30;100132.31;;;-2.68;67.56
13235;BME280;6683;48.506;9.050;2023-02-10T04:47:32;100130.69;;;-2.71;67.54
13235;BME280;6683;48.506;9.050;2023-02-10T04:50:38;100134.28;;;-2.75;67.68
13235;BME280;6683;48.506;9.050;2023-02-10T04:53:41;100130.13;;;-2.79;67.20
13235;BME280;6683;48.506;9.050;2023-02-10T04:56:45;100144.13;;;-2.84;67.10
13235;BME280;6683;48.506;9.050;2023-02-10T04:59:47;100142.56;;;-2.88;66.78
13235;BME280;6683;48.506;9.050;2023-02-10T05:02:50;100148.75;;;-2.94;67.33
13235;BME280;6683;48.506;9.050;2023-02-10T05:05:54;100148.97;;;-3.00;67.26
13235;BME280;6683;48.506;9.050;2023-02-10T05:08:56;100152.50;;;-3.02;67.32
13235;BME280;6683;48.506;9.050;2023-02-10T05:11:59;100156.00;;;-3.03;67.01
13235;BME280;6683;48.506;9.050;2023-02-10T05:15:01;100159.53;;;-3.06;66.92
13235;BME280;6683;48.506;9.050;2023-02-10T05:18:04;100161.41;;;-3.09;67.27
13235;BME280;6683;48.506;9.050;2023-02-10T05:21:09;100153.72;;;-3.11;67.45
13235;BME280;6683;48.506;9.050;2023-02-10T05:24:14;100158.88;;;-3.11;67.09
13235;BME280;6683;48.506;9.050;2023-02-10T05:27:16;100160.66;;;-3.13;67.16
13235;BME280;6683;48.506;9.050;2023-02-10T05:30:18;100163.28;;;-3.14;67.22
13235;BME280;6683;48.506;9.050;2023-02-10T05:33:21;100171.09;;;-3.16;67.16
13235;BME280;6683;48.506;9.050;2023-02-10T05:36:25;100176.34;;;-3.19;67.12
13235;BME280;6683;48.506;9.050;2023-02-10T05:39:27;100173.88;;;-3.22;67.45
13235;BME280;6683;48.506;9.050;2023-02-10T05:42:30;100178.31;;;-3.26;66.96
13235;BME280;6683;48.506;9.050;2023-02-10T05:45:33;100183.56;;;-3.29;67.30
13235;BME280;6683;48.506;9.050;2023-02-10T05:48:35;100194.06;;;-3.33;66.99
13235;BME280;6683;48.506;9.050;2023-02-10T05:51:39;100192.47;;;-3.37;67.02
13235;BME280;6683;48.506;9.050;2023-02-10T05:54:42;100189.16;;;-3.41;67.19
13235;BME280;6683;48.506;9.050;2023-02-10T05:57:44;100191.78;;;-3.42;67.04
13235;BME280;6683;48.506;9.050;2023-02-10T06:00:47;100185.81;;;-3.44;67.26
13235;BME280;6683;48.506;9.050;2023-02-10T06:03:50;100195.34;;;-3.46;67.14
13235;BME280;6683;48.506;9.050;2023-02-10T06:06:54;100205.78;;;-3.49;67.14
13235;BME280;6683;48.506;9.050;2023-02-10T06:09:56;100204.13;;;-3.52;67.01
13235;BME280;6683;48.506;9.050;2023-02-10T06:12:58;100202.47;;;-3.53;67.21
13235;BME280;6683;48.506;9.050;2023-02-10T06:16:01;100208.56;;;-3.55;67.30
13235;BME280;6683;48.506;9.050;2023-02-10T06:19:04;100209.44;;;-3.56;67.11
13235;BME280;6683;48.506;9.050;2023-02-10T06:22:08;100208.66;;;-3.58;67.04
13235;BME280;6683;48.506;9.050;2023-02-10T06:25:11;100209.59;;;-3.61;67.07
13235;BME280;6683;48.506;9.050;2023-02-10T06:28:14;100217.44;;;-3.64;67.11
13235;BME280;6683;48.506;9.050;2023-02-10T06:31:17;100221.75;;;-3.64;67.10
13235;BME280;6683;48.506;9.050;2023-02-10T06:34:19;100216.66;;;-3.66;67.02
13235;BME280;6683;48.506;9.050;2023-02-10T06:37:24;100223.59;;;-3.68;67.09
13235;BME280;6683;48.506;9.050;2023-02-10T06:40:26;100221.91;;;-3.69;67.08
13235;BME280;6683;48.506;9.050;2023-02-10T06:43:29;100231.41;;;-3.69;67.41
13235;BME280;6683;48.506;9.050;2023-02-10T06:46:31;100230.44;;;-3.67;67.31
13235;BME280;6683;48.506;9.050;2023-02-10T06:49:33;100230.41;;;-3.65;67.25
13235;BME280;6683;48.506;9.050;2023-02-10T06:52:37;100240.66;;;-3.64;67.19
13235;BME280;6683;48.506;9.050;2023-02-10T06:55:40;100232.94;;;-3.64;67.13
13235;BME280;6683;48.506;9.050;2023-02-10T06:58:42;100243.25;;;-3.64;67.06
13235;BME280;6683;48.506;9.050;2023-02-10T07:01:45;100236.38;;;-3.65;66.98
13235;BME280;6683;48.506;9.050;2023-02-10T07:04:48;100240.72;;;-3.65;67.05
13235;BME280;6683;48.506;9.050;2023-02-10T07:07:52;100253.63;;;-3.65;66.98
13235;BME280;6683;48.506;9.050;2023-02-10T07:10:54;100256.22;;;-3.65;67.18
13235;BME280;6683;48.506;9.050;2023-02-10T07:13:57;100260.47;;;-3.64;67.18
13235;BME280;6683;48.506;9.050;2023-02-10T07:17:00;100257.75;;;-3.60;67.16
13235;BME280;6683;48.506;9.050;2023-02-10T07:20:03;100255.88;;;-3.55;67.35
13235;BME280;6683;48.506;9.050;2023-02-10T07:23:07;100255.69;;;-3.50;67.31
13235;BME280;6683;48.506;9.050;2023-02-10T07:26:10;100263.38;;;-3.47;66.97
13235;BME280;6683;48.506;9.050;2023-02-10T07:29:13;100259.78;;;-3.43;67.33
13235;BME280;6683;48.506;9.050;2023-02-10T07:32:15;100263.09;;;-3.38;67.42
13235;BME280;6683;48.506;9.050;2023-02-10T07:35:18;100273.22;;;-3.32;67.56
13235;BME280;6683;48.506;9.050;2023-02-10T07:38:22;100266.94;;;-3.25;67.73
13235;BME280;6683;48.506;9.050;2023-02-10T07:41:24;100261.53;;;-3.17;67.67
13235;BME280;6683;48.506;9.050;2023-02-10T07:44:27;100262.97;;;-3.09;67.76
13235;BME280;6683;48.506;9.050;2023-02-10T07:47:29;100268.72;;;-3.01;67.61
13235;BME280;6683;48.506;9.050;2023-02-10T07:50:32;100264.94;;;-2.91;67.68
13235;BME280;6683;48.506;9.050;2023-02-10T07:53:35;100263.78;;;-2.82;67.45
13235;BME280;6683;48.506;9.050;2023-02-10T07:56:38;100265.13;;;-2.72;67.94
13235;BME280;6683;48.506;9.050;2023-02-10T07:59:41;100271.59;;;-2.61;67.74
13235;BME280;6683;48.506;9.050;2023-02-10T08:02:44;100277.19;;;-2.48;67.91
13235;BME280;6683;48.506;9.050;2023-02-10T08:05:46;100282.84;;;-2.37;68.05
13235;BME280;6683;48.506;9.050;2023-02-10T08:08:51;100273.75;;;-2.24;68.06
13235;BME280;6683;48.506;9.050;2023-02-10T08:11:54;100278.34;;;-2.09;68.34
13235;BME280;6683;48.506;9.050;2023-02-10T08:14:56;100276.09;;;-1.95;67.96
13235;BME280;6683;48.506;9.050;2023-02-10T08:17:59;100268.56;;;-1.79;67.89
13235;BME280;6683;48.506;9.050;2023-02-10T08:21:01;100268.06;;;-1.66;68.33
13235;BME280;6683;48.506;9.050;2023-02-10T08:24:06;100265.75;;;-1.51;68.11
13235;BME280;6683;48.506;9.050;2023-02-10T08:27:09;100263.47;;;-1.37;67.91
13235;BME280;6683;48.506;9.050;2023-02-10T08:30:12;100265.50;;;-1.24;68.29
13235;BME280;6683;48.506;9.050;2023-02-10T08:33:15;100264.22;;;-1.14;68.07
13235;BME280;6683;48.506;9.050;2023-02-10T08:36:18;100264.63;;;-1.03;68.04
13235;BME280;6683;48.506;9.050;2023-02-10T08:39:22;100261.59;;;-0.92;67.88
13235;BME280;6683;48.506;9.050;2023-02-10T08:42:25;100275.78;;;-0.81;68.36
13235;BME280;6683;48.506;9.050;2023-02-10T08:45:28;100272.72;;;-0.70;68.29
13235;BME280;6683;48.506;9.050;2023-02-10T08:48:31;100278.34;;;-0.60;67.86
13235;BME280;6683;48.506;9.050;2023-02-10T08:51:34;100275.38;;;-0.51;68.37
13235;BME280;6683;48.506;9.050;2023-02-10T08:54:40;100281.06;;;-0.43;68.14
13235;BME280;6683;48.506;9.050;2023-02-10T08:57:43;100276.34;;;-0.34;67.91
13235;BME280;6683;48.506;9.050;2023-02-10T09:00:45;100263.84;;;-0.26;67.86
13235;BME280;6683;48.506;9.050;2023-02-10T09:03:48;100254.75;;;-0.16;68.10
13235;BME280;6683;48.506;9.050;2023-02-10T09:06:51;100262.81;;;-0.03;68.57
13235;BME280;6683;48.506;9.050;2023-02-10T09:09:55;100267.53;;;0.08;68.77
13235;BME280;6683;48.506;9.050;2023-02-10T09:12:57;100268.78;;;0.18;68.50
13235;BME280;6683;48.506;9.050;2023-02-10T09:15:59;100263.16;;;0.27;68.10
13235;BME280;6683;48.506;9.050;2023-02-10T09:19:02;100266.94;;;0.38;68.04
13235;BME280;6683;48.506;9.050;2023-02-10T09:22:05;100263.16;;;0.45;68.46
13235;BME280;6683;48.506;9.050;2023-02-10T09:25:09;100254.97;;;0.53;68.53
13235;BME280;6683;48.506;9.050;2023-02-10T09:28:12;100261.28;;;0.66;68.21
13235;BME280;6683;48.506;9.050;2023-02-10T09:31:15;100257.19;;;0.79;68.14
13235;BME280;6683;48.506;9.050;2023-02-10T09:34:18;100255.03;;;0.87;68.35
13235;BME280;6683;48.506;9.050;2023-02-10T09:37:21;100258.84;;;0.97;68.20
13235;BME280;6683;48.506;9.050;2023-02-10T09:40:30;100258.41;;;1.06;68.47
13235;BME280;6683;48.506;9.050;2023-02-10T09:44:04;100260.97;;;1.23;68.85
13235;BME280;6683;48.506;9.050;2023-02-10T09:47:27;100265.75;;;1.65;70.50
13235;BME280;6683;48.506;9.050;2023-02-10T09:50:53;100258.72;;;2.92;70.25
13235;BME280;6683;48.506;9.050;2023-02-10T09:54:01;100261.72;;;4.14;66.83
13235;BME280;6683;48.506;9.050;2023-02-10T09:57:12;100258.47;;;5.17;65.41
13235;BME280;6683;48.506;9.050;2023-02-10T10:00:24;100245.28;;;6.43;63.23
13235;BME280;6683;48.506;9.050;2023-02-10T10:03:39;100245.22;;;7.60;61.39
13235;BME280;6683;48.506;9.050;2023-02-10T10:06:48;100246.38;;;8.66;60.59
13235;BME280;6683;48.506;9.050;2023-02-10T10:09:59;100235.28;;;9.87;59.30
13235;BME280;6683;48.506;9.050;2023-02-10T10:13:11;100233.63;;;10.94;56.64
13235;BME280;6683;48.506;9.050;2023-02-10T10:16:30;100226.47;;;11.98;55.94
13235;BME280;6683;48.506;9.050;2023-02-10T10:19:52;100225.69;;;13.05;54.13
13235;BME280;6683;48.506;9.050;2023-02-10T10:23:06;100212.19;;;13.85;53.57
13235;BME280;6683;48.506;9.050;2023-02-10T10:26:29;100214.97;;;14.67;52.94
13235;BME280;6683;48.506;9.050;2023-02-10T10:29:44;100197.22;;;15.32;52.41
13235;BME280;6683;48.506;9.050;2023-02-10T10:32:53;100195.09;;;16.06;51.31
13235;BME280;6683;48.506;9.050;2023-02-10T10:36:00;100193.47;;;16.66;50.40
13235;BME280;6683;48.506;9.050;2023-02-10T10:39:14;100186.22;;;17.20;49.47
13235;BME280;6683;48.506;9.050;2023-02-10T10:42:24;100185.03;;;17.60;48.54
13235;BME280;6683;48.506;9.050;2023-02-10T10:45:33;100172.56;;;17.96;48.08
13235;BME280;6683;48.506;9.050;2023-02-10T10:48:41;100168.56;;;18.36;47.85
13235;BME280;6683;48.506;9.050;2023-02-10T10:51:43;100163.91;;;18.59;47.45
13235;BME280;6683;48.506;9.050;2023-02-10T10:54:48;100161.03;;;19.03;46.60
13235;BME280;6683;48.506;9.050;2023-02-10T10:57:52;100162.63;;;19.40;45.83
13235;BME280;6683;48.506;9.050;2023-02-10T11:00:59;100149.03;;;19.41;45.34
13235;BME280;6683;48.506;9.050;2023-02-10T11:04:10;100147.50;;;19.11;45.61
13235;BME280;6683;48.506;9.050;2023-02-10T11:07:18;100142.88;;;18.98;46.13
13235;BME280;6683;48.506;9.050;2023-02-10T11:10:26;100143.47;;;19.22;45.50
13235;BME280;6683;48.506;9.050;2023-02-10T11:13:31;100135.47;;;19.49;44.92
13235;BME280;6683;48.506;9.050;2023-02-10T11:16:44;100138.91;;;19.71;44.78
13235;BME280;6683;48.506;9.050;2023-02-10T11:19:56;100140.44;;;19.86;44.65
13235;BME280;6683;48.506;9.050;2023-02-10T11:23:03;100131.69;;;20.12;44.46
13235;BME280;6683;48.506;9.050;2023-02-10T11:26:17;100124.94;;;20.23;43.95
13235;BME280;6683;48.506;9.050;2023-02-10T11:29:20;100120.94;;;20.12;44.53
13235;BME280;6683;48.506;9.050;2023-02-10T11:32:27;100121.81;;;20.19;44.78
13235;BME280;6683;48.506;9.050;2023-02-10T11:35:32;100121.69;;;20.47;44.10
13235;BME280;6683;48.506;9.050;2023-02-10T11:38:35;100101.50;;;20.64;43.81
13235;BME280;6683;48.506;9.050;2023-02-10T11:41:38;100112.28;;;20.84;43.58
13235;BME280;6683;48.506;9.050;2023-02-10T11:44:40;100109.38;;;20.98;43.20
13235;BME280;6683;48.506;9.050;2023-02-10T11:47:44;100114.13;;;21.16;42.61
13235;BME280;6683;48.506;9.050;2023-02-10T11:50:47;100102.53;;;21.41;42.53
13235;BME280;6683;48.506;9.050;2023-02-10T11:53:52;100103.94;;;21.57;41.69
13235;BME280;6683;48.506;9.050;2023-02-10T11:57:14;100096.66;;;21.84;40.62
13235;BME280;6683;48.506;9.050;2023-02-10T12:00:42;100090.53;;;22.14;40.85
13235;BME280;6683;48.506;9.050;2023-02-10T12:03:59;100088.75;;;22.33;40.20
13235;BME280;6683;48.506;9.050;2023-02-10T12:07:10;100090.59;;;22.39;39.99
13235;BME280;6683;48.506;9.050;2023-02-10T12:10:23;100081.22;;;22.48;39.54
13235;BME280;6683;48.506;9.050;2023-02-10T12:13:37;100082.88;;;22.11;39.77
13235;BME280;6683;48.506;9.050;2023-02-10T12:16:51;100079.47;;;21.91;40.37
13235;BME280;6683;48.506;9.050;2023-02-10T12:20:25;100075.91;;;21.20;41.00
13235;BME280;6683;48.506;9.050;2023-02-10T12:23:50;100077.34;;;21.29;40.84
13235;BME280;6683;48.506;9.050;2023-02-10T12:27:03;100075.69;;;21.35;40.06
13235;BME280;6683;48.506;9.050;2023-02-10T12:30:23;100077.53;;;21.34;39.27
13235;BME280;6683;48.506;9.050;2023-02-10T12:33:48;100079.44;;;21.14;39.93
13235;BME280;6683;48.506;9.050;2023-02-10T12:37:09;100074.28;;;21.13;40.10
13235;BME280;6683;48.506;9.050;2023-02-10T12:40:36;100056.94;;;21.09;39.67
13235;BME280;6683;48.506;9.050;2023-02-10T12:44:10;100061.44;;;21.02;38.67
13235;BME280;6683;48.506;9.050;2023-02-10T12:47:31;100056.31;;;21.07;38.97
13235;BME280;6683;48.506;9.050;2023-02-10T12:51:02;100052.19;;;21.04;39.15
13235;BME280;6683;48.506;9.050;2023-02-10T12:54:13;100047.22;;;21.08;39.11
13235;BME280;6683;48.506;9.050;2023-02-10T12:57:21;100036.03;;;21.17;38.40
13235;BME280;6683;48.506;9.050;2023-02-10T13:00:32;100042.47;;;21.03;38.19
13235;BME280;6683;48.506;9.050;2023-02-10T13:03:39;100042.63;;;20.23;39.38
13235;BME280;6683;48.506;9.050;2023-02-10T13:06:50;100050.81;;;18.93;40.27
13235;BME280;6683;48.506;9.050;2023-02-10T13:10:00;100042.34;;;17.40;42.22
13235;BME280;6683;48.506;9.050;2023-02-10T13:13:10;100050.28;;;16.22;43.78
13235;BME280;6683;48.506;9.050;2023-02-10T13:16:17;100052.56;;;15.25;45.57
13235;BME280;6683;48.506;9.050;2023-02-10T13:19:31;100050.53;;;14.48;46.63
13235;BME280;6683;48.506;9.050;2023-02-10T13:22:44;100043.91;;;13.78;47.97
13235;BME280;6683;48.506;9.050;2023-02-10T13:26:13;100042.97;;;13.11;48.82
13235;BME280;6683;48.506;9.050;2023-02-10T13:29:30;100054.13;;;12.54;50.10
13235;BME280;6683;48.506;9.050;2023-02-10T13:32:46;100044.78;;;12.07;51.36
13235;BME280;6683;48.506;9.050;2023-02-10T13:35:53;100048.66;;;11.67;51.98
13235;BME280;6683;48.506;9.050;2023-02-10T13:39:01;100043.09;;;11.34;52.90
13235;BME280;6683;48.506;9.050;2023-02-10T13:42:22;100050.84;;;11.08;53.00
13235;BME280;6683;48.506;9.050;2023-02-10T13:45:28;100043.41;;;10.84;53.28
13235;BME280;6683;48.506;9.050;2023-02-10T13:48:34;100054.72;;;10.67;53.99
13235;BME280;6683;48.506;9.050;2023-02-10T13:51:38;100052.63;;;10.52;54.60
13235;BME280;6683;48.506;9.050;2023-02-10T13:54:40;100059.44;;;10.35;54.55
13235;BME280;6683;48.506;9.050;2023-02-10T13:57:56;100059.72;;;10.22;55.08
13235;BME280;6683;48.506;9.050;2023-02-10T14:01:00;100053.47;;;10.14;55.05
13235;BME280;6683;48.506;9.050;2023-02-10T14:04:04;100062.06;;;10.06;55.35
13235;BME280;6683;48.506;9.050;2023-02-10T14:07:17;100064.69;;;9.97;55.56
13235;BME280;6683;48.506;9.050;2023-02-10T14:10:34;100066.22;;;9.90;55.59
13235;BME280;6683;48.506;9.050;2023-02-10T14:13:37;100071.19;;;9.83;55.46
13235;BME280;6683;48.506;9.050;2023-02-10T14:16:41;100070.78;;;9.78;55.75
13235;BME280;6683;48.506;9.050;2023-02-10T14:19:46;100077.28;;;9.74;55.66
13235;BME280;6683;48.506;9.050;2023-02-10T14:22:52;100069.63;;;9.71;55.74
13235;BME280;6683;48.506;9.050;2023-02-10T14:26:02;100068.25;;;9.67;56.08
13235;BME280;6683;48.506;9.050;2023-02-10T14:29:10;100070.19;;;9.65;56.33
13235;BME280;6683;48.506;9.050;2023-02-10T14:32:16;100069.47;;;9.63;56.23
13235;BME280;6683;48.506;9.050;2023-02-10T14:35:21;100073.06;;;9.62;56.28
13235;BME280;6683;48.506;9.050;2023-02-10T14:38:27;100081.81;;;9.62;56.38
13235;BME280;6683;48.506;9.050;2023-02-10T14:41:32;100072.25;;;9.61;56.14
13235;BME280;6683;48.506;9.050;2023-02-10T14:44:41;100063.50;;;9.61;56.70
13235;BME280;6683;48.506;9.050;2023-02-10T14:47:48;100071.56;;;9.59;56.42
13235;BME280;6683;48.506;9.050;2023-02-10T14:51:06;100070.97;;;9.56;56.51
13235;BME280;6683;48.506;9.050;2023-02-10T14:54:14;100066.81;;;9.53;56.33
13235;BME280;6683;48.506;9.050;2023-02-10T14:57:19;100067.94;;;9.51;56.44
13235;BME280;6683;48.506;9.050;2023-02-10T15:00:23;100065.53;;;9.48;56.16
13235;BME280;6683;48.506;9.050;2023-02-10T15:03:27;100064.00;;;9.45;56.54
13235;BME280;6683;48.506;9.050;2023-02-10T15:06:31;100059.03;;;9.42;56.52
13235;BME280;6683;48.506;9.050;2023-02-10T15:09:35;100057.47;;;9.40;56.23
13235;BME280;6683;48.506;9.050;2023-02-10T15:12:38;100055.09;;;9.37;56.19
13235;BME280;6683;48.506;9.050;2023-02-10T15:15:45;100057.31;;;9.32;56.16
13235;BME280;6683;48.506;9.050;2023-02-10T15:18:50;100052.56;;;9.26;55.99
13235;BME280;6683;48.506;9.050;2023-02-10T15:21:53;100052.97;;;9.21;55.91
13235;BME280;6683;48.506;9.050;2023-02-10T15:24:55;100063.19;;;9.15;55.63
13235;BME280;6683;48.506;9.050;2023-02-10T15:28:01;100063.72;;;9.09;55.63
13235;BME280;6683;48.506;9.050;2023-02-10T15:31:26;100062.56;;;9.02;55.99
13235;BME280;6683;48.506;9.050;2023-02-10T15:34:31;100065.72;;;8.96;55.69
13235;BME280;6683;48.506;9.050;2023-02-10T15:37:34;100067.09;;;8.90;55.79
13235;BME280;6683;48.506;9.050;2023-02-10T15:40:38;100069.41;;;8.83;55.67
13235;BME280;6683;48.506;9.050;2023-02-10T15:43:47;100065.88;;;8.73;55.71
13235;BME280;6683;48.506;9.050;2023-02-10T15:46:53;100068.34;;;8.65;55.53
13235;BME280;6683;48.506;9.050;2023-02-10T15:49:58;100066.31;;;8.58;55.87
13235;BME280;6683;48.506;9.050;2023-02-10T15:53:01;100072.81;;;8.54;55.79
13235;BME280;6683;48.506;9.050;2023-02-10T15:56:05;100069.13;;;8.45;55.74
13235;BME280;6683;48.506;9.050;2023-02-10T15:59:15;100072.56;;;8.36;55.87
13235;BME280;6683;48.506;9.050;2023-02-10T16:02:19;100070.53;;;8.29;55.70
13235;BME280;6683;48.506;9.050;2023-02-10T16:05:22;100067.53;;;8.22;55.67
13235;BME280;6683;48.506;9.050;2023-02-10T16:08:25;100064.47;;;8.17;56.02
13235;BME280;6683;48.506;9.050;2023-02-10T16:11:27;100068.31;;;8.13;56.22
13235;BME280;6683;48.506;9.050;2023-02-10T16:14:30;100066.19;;;8.07;56.25
13235;BME280;6683;48.506;9.050;2023-02-10T16:17:39;100058.75;;;8.01;56.38
13235;BME280;6683;48.506;9.050;2023-02-10T16:20:42;100055.69;;;7.96;56.43
13235;BME280;6683;48.506;9.050;2023-02-10T16:23:44;100053.56;;;7.90;56.49
13235;BME280;6683;48.506;9.050;2023-02-10T16:26:47;100058.47;;;7.83;56.70
13235;BME280;6683;48.506;9.050;2023-02-10T16:29:49;100058.13;;;7.77;56.53
13235;BME280;6683;48.506;9.050;2023-02-10T16:32:54;100066.75;;;7.68;56.74